sensor_id;sensor_type;location;lat;lon;timestamp;P1;durP1;ratioP1;P2;durP2;ratioP2
52170;SDS011;38689;47.552;18.820;2023-06-14T00:01:47;4.47;;;2.92;;
52170;SDS011;38689;47.552;18.820;2023-06-14T00:04:14;4.20;;;2.75;;
52170;SDS011;38689;47.552;18.820;2023-06-14T00:06:42;4.53;;;2.83;;
52170;SDS011;38689;47.552;18.820;2023-06-14T00:09:11;4.30;;;2.60;;
52170;SDS011;38689;47.552;18.820;2023-06-14T00:11:43;5.18;;;2.70;;
52170;SDS011;38689;47.552;18.820;2023-06-14T00:14:09;4.70;;;2.87;;
52170;SDS011;38689;47.552;18.820;2023-06-14T00:16:35;6.22;;;2.95;;
52170;SDS011;38689;47.552;18.820;2023-06-14T00:19:02;5.75;;;2.92;;
52170;SDS011;38689;47.552;18.820;2023-06-14T00:21:30;4.70;;;3.00;;
52170;SDS011;38689;47.552;18.820;2023-06-14T00:23:57;4.32;;;2.80;;
52170;SDS011;38689;47.552;18.820;2023-06-14T00:26:25;3.83;;;2.75;;
52170;SDS011;38689;47.552;18.820;2023-06-14T00:28:52;4.75;;;2.65;;
52170;SDS011;38689;47.552;18.820;2023-06-14T00:31:19;3.90;;;2.67;;
52170;SDS011;38689;47.552;18.820;2023-06-14T00:33:45;5.37;;;3.15;;
52170;SDS011;38689;47.552;18.820;2023-06-14T00:36:11;4.78;;;2.65;;
52170;SDS011;38689;47.552;18.820;2023-06-14T00:38:38;6.62;;;3.08;;
52170;SDS011;38689;47.552;18.820;2023-06-14T00:41:04;3.87;;;2.75;;
52170;SDS011;38689;47.552;18.820;2023-06-14T00:43:30;4.28;;;2.85;;
52170;SDS011;38689;47.552;18.820;2023-06-14T00:45:56;4.53;;;2.80;;
52170;SDS011;38689;47.552;18.820;2023-06-14T00:48:49;4.18;;;2.87;;
52170;SDS011;38689;47.552;18.820;2023-06-14T00:51:16;4.70;;;2.80;;
52170;SDS011;38689;47.552;18.820;2023-06-14T00:53:42;4.45;;;2.70;;
52170;SDS011;38689;47.552;18.820;2023-06-14T00:56:12;5.93;;;2.92;;
52170;SDS011;38689;47.552;18.820;2023-06-14T00:58:40;4.00;;;2.70;;
52170;SDS011;38689;47.552;18.820;2023-06-14T01:01:07;4.30;;;2.78;;
52170;SDS011;38689;47.552;18.820;2023-06-14T01:03:33;6.37;;;2.95;;
52170;SDS011;38689;47.552;18.820;2023-06-14T01:06:02;4.62;;;2.80;;
52170;SDS011;38689;47.552;18.820;2023-06-14T01:08:45;4.47;;;2.70;;
52170;SDS011;38689;47.552;18.820;2023-06-14T01:11:26;4.65;;;3.03;;
52170;SDS011;38689;47.552;18.820;2023-06-14T01:13:57;4.47;;;2.83;;
52170;SDS011;38689;47.552;18.820;2023-06-14T01:16:25;5.12;;;3.10;;
52170;SDS011;38689;47.552;18.820;2023-06-14T01:18:52;5.53;;;3.10;;
52170;SDS011;38689;47.552;18.820;2023-06-14T01:21:22;5.40;;;2.90;;
52170;SDS011;38689;47.552;18.820;2023-06-14T01:23:49;4.53;;;2.70;;
52170;SDS011;38689;47.552;18.820;2023-06-14T01:26:22;5.37;;;3.05;;
52170;SDS011;38689;47.552;18.820;2023-06-14T01:28:48;5.62;;;3.35;;
52170;SDS011;38689;47.552;18.820;2023-06-14T01:31:20;5.03;;;3.05;;
52170;SDS011;38689;47.552;18.820;2023-06-14T01:33:47;5.57;;;3.30;;
52170;SDS011;38689;47.552;18.820;2023-06-14T01:36:15;4.65;;;3.20;;
52170;SDS011;38689;47.552;18.820;2023-06-14T01:38:41;5.25;;;2.80;;
52170;SDS011;38689;47.552;18.820;2023-06-14T01:41:07;6.12;;;3.05;;
52170;SDS011;38689;47.552;18.820;2023-06-14T01:43:35;4.68;;;3.05;;
52170;SDS011;38689;47.552;18.820;2023-06-14T01:46:01;6.25;;;3.33;;
52170;SDS011;38689;47.552;18.820;2023-06-14T01:48:28;5.65;;;3.22;;
52170;SDS011;38689;47.552;18.820;2023-06-14T01:50:54;5.95;;;3.00;;
52170;SDS011;38689;47.552;18.820;2023-06-14T01:53:21;4.75;;;2.90;;
52170;SDS011;38689;47.552;18.820;2023-06-14T01:55:47;7.65;;;3.55;;
52170;SDS011;38689;47.552;18.820;2023-06-14T01:58:14;4.57;;;2.90;;
52170;SDS011;38689;47.552;18.820;2023-06-14T02:00:42;5.03;;;2.85;;
52170;SDS011;38689;47.552;18.820;2023-06-14T02:03:09;6.07;;;3.45;;
52170;SDS011;38689;47.552;18.820;2023-06-14T02:05:37;4.57;;;2.90;;
52170;SDS011;38689;47.552;18.820;2023-06-14T02:08:05;5.40;;;2.95;;
52170;SDS011;38689;47.552;18.820;2023-06-14T02:10:31;6.15;;;3.10;;
52170;SDS011;38689;47.552;18.820;2023-06-14T02:12:57;5.35;;;3.35;;
52170;SDS011;38689;47.552;18.820;2023-06-14T02:15:23;6.15;;;3.45;;
52170;SDS011;38689;47.552;18.820;2023-06-14T02:17:49;5.47;;;3.40;;
52170;SDS011;38689;47.552;18.820;2023-06-14T02:20:16;5.32;;;3.05;;
52170;SDS011;38689;47.552;18.820;2023-06-14T02:22:42;5.12;;;3.17;;
52170;SDS011;38689;47.552;18.820;2023-06-14T02:25:08;5.43;;;2.95;;
52170;SDS011;38689;47.552;18.820;2023-06-14T02:27:34;6.18;;;3.45;;
52170;SDS011;38689;47.552;18.820;2023-06-14T02:30:01;5.85;;;3.35;;
52170;SDS011;38689;47.552;18.820;2023-06-14T02:32:27;5.22;;;3.50;;
52170;SDS011;38689;47.552;18.820;2023-06-14T02:34:53;5.90;;;3.53;;
52170;SDS011;38689;47.552;18.820;2023-06-14T02:37:20;4.70;;;3.10;;
52170;SDS011;38689;47.552;18.820;2023-06-14T02:39:46;5.85;;;3.35;;
52170;SDS011;38689;47.552;18.820;2023-06-14T02:42:12;5.85;;;3.40;;
52170;SDS011;38689;47.552;18.820;2023-06-14T02:44:38;5.93;;;3.50;;
52170;SDS011;38689;47.552;18.820;2023-06-14T02:47:04;5.47;;;3.20;;
52170;SDS011;38689;47.552;18.820;2023-06-14T02:49:30;6.00;;;3.30;;
52170;SDS011;38689;47.552;18.820;2023-06-14T02:51:56;6.28;;;3.30;;
52170;SDS011;38689;47.552;18.820;2023-06-14T02:54:23;6.43;;;3.50;;
52170;SDS011;38689;47.552;18.820;2023-06-14T02:56:49;6.45;;;3.42;;
52170;SDS011;38689;47.552;18.820;2023-06-14T02:59:15;7.30;;;4.20;;
52170;SDS011;38689;47.552;18.820;2023-06-14T03:01:42;7.30;;;3.83;;
52170;SDS011;38689;47.552;18.820;2023-06-14T03:04:08;6.45;;;3.60;;
52170;SDS011;38689;47.552;18.820;2023-06-14T03:06:34;8.20;;;3.75;;
52170;SDS011;38689;47.552;18.820;2023-06-14T03:09:02;7.40;;;3.92;;
52170;SDS011;38689;47.552;18.820;2023-06-14T03:11:31;8.60;;;3.90;;
52170;SDS011;38689;47.552;18.820;2023-06-14T03:13:57;7.70;;;4.25;;
52170;SDS011;38689;47.552;18.820;2023-06-14T03:16:24;7.50;;;4.03;;
52170;SDS011;38689;47.552;18.820;2023-06-14T03:18:51;7.07;;;4.00;;
52170;SDS011;38689;47.552;18.820;2023-06-14T03:21:21;7.22;;;3.83;;
52170;SDS011;38689;47.552;18.820;2023-06-14T03:23:47;6.53;;;3.87;;
52170;SDS011;38689;47.552;18.820;2023-06-14T03:26:15;6.57;;;3.67;;
52170;SDS011;38689;47.552;18.820;2023-06-14T03:28:46;6.93;;;4.25;;
52170;SDS011;38689;47.552;18.820;2023-06-14T03:31:13;6.80;;;3.70;;
52170;SDS011;38689;47.552;18.820;2023-06-14T03:33:40;6.95;;;3.70;;
52170;SDS011;38689;47.552;18.820;2023-06-14T03:36:06;6.25;;;3.60;;
52170;SDS011;38689;47.552;18.820;2023-06-14T03:38:33;6.43;;;3.83;;
52170;SDS011;38689;47.552;18.820;2023-06-14T03:40:59;6.75;;;4.03;;
52170;SDS011;38689;47.552;18.820;2023-06-14T03:43:27;7.28;;;4.20;;
52170;SDS011;38689;47.552;18.820;2023-06-14T03:45:53;8.05;;;4.15;;
52170;SDS011;38689;47.552;18.820;2023-06-14T03:48:19;7.60;;;4.12;;
52170;SDS011;38689;47.552;18.820;2023-06-14T03:50:45;7.55;;;3.92;;
52170;SDS011;38689;47.552;18.820;2023-06-14T03:53:11;8.88;;;4.10;;
52170;SDS011;38689;47.552;18.820;2023-06-14T03:55:57;9.32;;;4.10;;
52170;SDS011;38689;47.552;18.820;2023-06-14T03:58:25;6.62;;;3.90;;
52170;SDS011;38689;47.552;18.820;2023-06-14T04:00:52;7.80;;;4.22;;
52170;SDS011;38689;47.552;18.820;2023-06-14T04:03:18;7.20;;;4.05;;
52170;SDS011;38689;47.552;18.820;2023-06-14T04:05:45;7.90;;;4.43;;
52170;SDS011;38689;47.552;18.820;2023-06-14T04:08:14;7.47;;;4.30;;
52170;SDS011;38689;47.552;18.820;2023-06-14T04:10:41;6.93;;;4.55;;
52170;SDS011;38689;47.552;18.820;2023-06-14T04:13:07;9.48;;;4.32;;
52170;SDS011;38689;47.552;18.820;2023-06-14T04:15:33;7.57;;;4.47;;
52170;SDS011;38689;47.552;18.820;2023-06-14T04:17:59;9.68;;;4.85;;
52170;SDS011;38689;47.552;18.820;2023-06-14T04:20:26;7.35;;;4.43;;
52170;SDS011;38689;47.552;18.820;2023-06-14T04:22:52;10.23;;;4.50;;
52170;SDS011;38689;47.552;18.820;2023-06-14T04:25:18;9.30;;;4.50;;
52170;SDS011;38689;47.552;18.820;2023-06-14T04:27:44;9.13;;;4.90;;
52170;SDS011;38689;47.552;18.820;2023-06-14T04:30:12;9.18;;;5.05;;
52170;SDS011;38689;47.552;18.820;2023-06-14T04:32:39;8.45;;;5.95;;
52170;SDS011;38689;47.552;18.820;2023-06-14T04:35:08;9.15;;;4.37;;
52170;SDS011;38689;47.552;18.820;2023-06-14T04:37:34;8.00;;;5.75;;
52170;SDS011;38689;47.552;18.820;2023-06-14T04:40:00;8.40;;;5.32;;
52170;SDS011;38689;47.552;18.820;2023-06-14T04:42:26;9.25;;;5.03;;
52170;SDS011;38689;47.552;18.820;2023-06-14T04:44:56;7.72;;;4.65;;
52170;SDS011;38689;47.552;18.820;2023-06-14T04:47:23;7.80;;;4.60;;
52170;SDS011;38689;47.552;18.820;2023-06-14T04:49:56;8.75;;;4.75;;
52170;SDS011;38689;47.552;18.820;2023-06-14T04:52:22;8.90;;;5.40;;
52170;SDS011;38689;47.552;18.820;2023-06-14T04:54:48;8.25;;;5.53;;
52170;SDS011;38689;47.552;18.820;2023-06-14T04:57:14;7.37;;;5.12;;
52170;SDS011;38689;47.552;18.820;2023-06-14T04:59:43;8.23;;;5.12;;
52170;SDS011;38689;47.552;18.820;2023-06-14T05:02:10;9.18;;;5.47;;
52170;SDS011;38689;47.552;18.820;2023-06-14T05:04:37;7.57;;;4.80;;
52170;SDS011;38689;47.552;18.820;2023-06-14T05:07:09;8.38;;;5.18;;
52170;SDS011;38689;47.552;18.820;2023-06-14T05:09:36;8.85;;;5.45;;
52170;SDS011;38689;47.552;18.820;2023-06-14T05:12:02;7.43;;;5.10;;
52170;SDS011;38689;47.552;18.820;2023-06-14T05:14:29;9.00;;;5.05;;
52170;SDS011;38689;47.552;18.820;2023-06-14T05:16:55;13.52;;;5.45;;
52170;SDS011;38689;47.552;18.820;2023-06-14T05:19:21;6.95;;;4.75;;
52170;SDS011;38689;47.552;18.820;2023-06-14T05:21:47;9.10;;;5.40;;
52170;SDS011;38689;47.552;18.820;2023-06-14T05:24:14;7.70;;;4.97;;
52170;SDS011;38689;47.552;18.820;2023-06-14T05:26:40;7.97;;;5.03;;
52170;SDS011;38689;47.552;18.820;2023-06-14T05:29:06;7.50;;;4.75;;
52170;SDS011;38689;47.552;18.820;2023-06-14T05:31:32;8.82;;;4.93;;
52170;SDS011;38689;47.552;18.820;2023-06-14T05:33:58;9.75;;;5.53;;
52170;SDS011;38689;47.552;18.820;2023-06-14T05:36:25;7.22;;;4.78;;
52170;SDS011;38689;47.552;18.820;2023-06-14T05:38:53;9.13;;;5.20;;
52170;SDS011;38689;47.552;18.820;2023-06-14T05:41:28;7.03;;;4.80;;
52170;SDS011;38689;47.552;18.820;2023-06-14T05:43:55;7.40;;;4.95;;
52170;SDS011;38689;47.552;18.820;2023-06-14T05:46:22;8.70;;;4.85;;
52170;SDS011;38689;47.552;18.820;2023-06-14T05:48:51;7.85;;;4.85;;
52170;SDS011;38689;47.552;18.820;2023-06-14T05:51:17;7.55;;;4.80;;
52170;SDS011;38689;47.552;18.820;2023-06-14T05:53:47;8.57;;;5.15;;
52170;SDS011;38689;47.552;18.820;2023-06-14T05:56:14;7.00;;;4.62;;
52170;SDS011;38689;47.552;18.820;2023-06-14T05:58:41;8.55;;;5.05;;
52170;SDS011;38689;47.552;18.820;2023-06-14T06:01:07;7.28;;;4.70;;
52170;SDS011;38689;47.552;18.820;2023-06-14T06:03:33;7.22;;;4.78;;
52170;SDS011;38689;47.552;18.820;2023-06-14T06:05:59;9.50;;;5.20;;
52170;SDS011;38689;47.552;18.820;2023-06-14T06:08:26;9.38;;;5.37;;
52170;SDS011;38689;47.552;18.820;2023-06-14T06:10:53;7.65;;;4.72;;
52170;SDS011;38689;47.552;18.820;2023-06-14T06:13:19;8.57;;;4.57;;
52170;SDS011;38689;47.552;18.820;2023-06-14T06:15:45;8.45;;;5.18;;
52170;SDS011;38689;47.552;18.820;2023-06-14T06:18:12;10.32;;;5.25;;
52170;SDS011;38689;47.552;18.820;2023-06-14T06:20:38;6.78;;;4.45;;
52170;SDS011;38689;47.552;18.820;2023-06-14T06:23:04;8.73;;;4.82;;
52170;SDS011;38689;47.552;18.820;2023-06-14T06:25:30;7.43;;;4.68;;
52170;SDS011;38689;47.552;18.820;2023-06-14T06:27:57;6.95;;;4.40;;
52170;SDS011;38689;47.552;18.820;2023-06-14T06:30:24;6.90;;;4.43;;
52170;SDS011;38689;47.552;18.820;2023-06-14T06:32:51;7.87;;;4.47;;
52170;SDS011;38689;47.552;18.820;2023-06-14T06:35:17;6.97;;;4.60;;
52170;SDS011;38689;47.552;18.820;2023-06-14T06:37:43;6.45;;;4.18;;
52170;SDS011;38689;47.552;18.820;2023-06-14T06:40:09;7.50;;;4.68;;
52170;SDS011;38689;47.552;18.820;2023-06-14T12:19:13;3.80;;;2.50;;
52170;SDS011;38689;47.552;18.820;2023-06-14T12:21:40;6.85;;;2.83;;
52170;SDS011;38689;47.552;18.820;2023-06-14T12:24:06;6.72;;;2.90;;
52170;SDS011;38689;47.552;18.820;2023-06-14T12:26:33;4.78;;;2.80;;
52170;SDS011;38689;47.552;18.820;2023-06-14T12:28:59;4.93;;;2.70;;
52170;SDS011;38689;47.552;18.820;2023-06-14T12:31:26;5.35;;;2.42;;
52170;SDS011;38689;47.552;18.820;2023-06-14T12:33:52;6.43;;;2.67;;
52170;SDS011;38689;47.552;18.820;2023-06-14T12:36:19;4.93;;;2.53;;
52170;SDS011;38689;47.552;18.820;2023-06-14T12:38:45;3.37;;;2.08;;
52170;SDS011;38689;47.552;18.820;2023-06-14T12:41:12;5.00;;;2.45;;
52170;SDS011;38689;47.552;18.820;2023-06-14T12:43:40;3.85;;;2.28;;
52170;SDS011;38689;47.552;18.820;2023-06-14T12:46:06;4.25;;;2.60;;
52170;SDS011;38689;47.552;18.820;2023-06-14T12:48:32;6.28;;;2.70;;
52170;SDS011;38689;47.552;18.820;2023-06-14T12:50:59;8.40;;;2.47;;
52170;SDS011;38689;47.552;18.820;2023-06-14T12:53:26;5.07;;;2.90;;
52170;SDS011;38689;47.552;18.820;2023-06-14T12:55:52;5.12;;;2.50;;
52170;SDS011;38689;47.552;18.820;2023-06-14T12:58:18;3.25;;;2.45;;
52170;SDS011;38689;47.552;18.820;2023-06-14T13:00:45;4.20;;;2.22;;
52170;SDS011;38689;47.552;18.820;2023-06-14T13:03:12;3.45;;;2.58;;
52170;SDS011;38689;47.552;18.820;2023-06-14T13:05:38;4.35;;;2.58;;
52170;SDS011;38689;47.552;18.820;2023-06-14T13:08:07;4.80;;;2.55;;
52170;SDS011;38689;47.552;18.820;2023-06-14T13:10:36;6.75;;;2.72;;
52170;SDS011;38689;47.552;18.820;2023-06-14T13:13:02;3.85;;;2.70;;
52170;SDS011;38689;47.552;18.820;2023-06-14T13:15:29;5.40;;;2.40;;
52170;SDS011;38689;47.552;18.820;2023-06-14T13:17:55;3.97;;;2.60;;
52170;SDS011;38689;47.552;18.820;2023-06-14T13:20:21;3.85;;;2.40;;
52170;SDS011;38689;47.552;18.820;2023-06-14T13:22:47;6.70;;;2.58;;
52170;SDS011;38689;47.552;18.820;2023-06-14T13:25:13;4.50;;;2.60;;
52170;SDS011;38689;47.552;18.820;2023-06-14T13:27:40;6.90;;;2.90;;
52170;SDS011;38689;47.552;18.820;2023-06-14T13:30:06;4.95;;;2.78;;
52170;SDS011;38689;47.552;18.820;2023-06-14T13:32:32;3.87;;;2.35;;
52170;SDS011;38689;47.552;18.820;2023-06-14T13:34:59;4.68;;;2.47;;
52170;SDS011;38689;47.552;18.820;2023-06-14T13:37:27;4.65;;;2.60;;
52170;SDS011;38689;47.552;18.820;2023-06-14T13:39:53;4.20;;;2.45;;
52170;SDS011;38689;47.552;18.820;2023-06-14T13:42:19;5.10;;;2.30;;
52170;SDS011;38689;47.552;18.820;2023-06-14T13:44:46;3.30;;;2.35;;
52170;SDS011;38689;47.552;18.820;2023-06-14T13:47:12;7.12;;;2.50;;
52170;SDS011;38689;47.552;18.820;2023-06-14T13:49:38;3.53;;;2.30;;
52170;SDS011;38689;47.552;18.820;2023-06-14T13:52:04;4.70;;;2.53;;
52170;SDS011;38689;47.552;18.820;2023-06-14T13:54:30;6.25;;;2.55;;
52170;SDS011;38689;47.552;18.820;2023-06-14T13:56:56;5.55;;;2.42;;
52170;SDS011;38689;47.552;18.820;2023-06-14T13:59:22;3.47;;;2.30;;
52170;SDS011;38689;47.552;18.820;2023-06-14T14:01:49;7.65;;;2.60;;
52170;SDS011;38689;47.552;18.820;2023-06-14T14:04:15;4.53;;;2.35;;
52170;SDS011;38689;47.552;18.820;2023-06-14T14:06:41;5.57;;;2.50;;
52170;SDS011;38689;47.552;18.820;2023-06-14T14:09:07;8.93;;;2.45;;
52170;SDS011;38689;47.552;18.820;2023-06-14T14:11:34;3.67;;;2.10;;
52170;SDS011;38689;47.552;18.820;2023-06-14T14:14:00;4.70;;;2.25;;
52170;SDS011;38689;47.552;18.820;2023-06-14T14:16:27;3.53;;;2.22;;
52170;SDS011;38689;47.552;18.820;2023-06-14T14:18:53;3.97;;;2.33;;
52170;SDS011;38689;47.552;18.820;2023-06-14T14:21:19;4.53;;;2.40;;
52170;SDS011;38689;47.552;18.820;2023-06-14T14:23:46;4.60;;;2.50;;
52170;SDS011;38689;47.552;18.820;2023-06-14T14:26:12;4.40;;;2.40;;
52170;SDS011;38689;47.552;18.820;2023-06-14T14:28:38;6.57;;;2.50;;
52170;SDS011;38689;47.552;18.820;2023-06-14T14:31:04;4.30;;;2.30;;
52170;SDS011;38689;47.552;18.820;2023-06-14T14:33:30;4.62;;;2.70;;
52170;SDS011;38689;47.552;18.820;2023-06-14T14:35:56;6.20;;;3.03;;
52170;SDS011;38689;47.552;18.820;2023-06-14T14:38:22;4.50;;;2.90;;
52170;SDS011;38689;47.552;18.820;2023-06-14T14:40:48;4.55;;;2.75;;
52170;SDS011;38689;47.552;18.820;2023-06-14T14:43:15;4.20;;;2.70;;
52170;SDS011;38689;47.552;18.820;2023-06-14T14:45:41;4.75;;;2.67;;
52170;SDS011;38689;47.552;18.820;2023-06-14T14:48:07;3.53;;;2.37;;
52170;SDS011;38689;47.552;18.820;2023-06-14T14:50:33;5.05;;;2.50;;
52170;SDS011;38689;47.552;18.820;2023-06-14T14:52:59;5.05;;;2.60;;
52170;SDS011;38689;47.552;18.820;2023-06-14T14:55:26;4.05;;;2.70;;
52170;SDS011;38689;47.552;18.820;2023-06-14T14:57:52;5.22;;;2.53;;
52170;SDS011;38689;47.552;18.820;2023-06-14T15:00:18;3.83;;;2.55;;
52170;SDS011;38689;47.552;18.820;2023-06-14T15:02:44;4.80;;;2.37;;
52170;SDS011;38689;47.552;18.820;2023-06-14T15:05:10;4.37;;;2.50;;
52170;SDS011;38689;47.552;18.820;2023-06-14T15:07:36;3.70;;;2.55;;
52170;SDS011;38689;47.552;18.820;2023-06-14T15:10:05;3.45;;;2.33;;
52170;SDS011;38689;47.552;18.820;2023-06-14T15:12:32;4.57;;;2.30;;
52170;SDS011;38689;47.552;18.820;2023-06-14T15:14:58;3.78;;;2.42;;
52170;SDS011;38689;47.552;18.820;2023-06-14T15:17:24;6.60;;;2.42;;
52170;SDS011;38689;47.552;18.820;2023-06-14T15:19:50;6.15;;;2.58;;
52170;SDS011;38689;47.552;18.820;2023-06-14T15:22:16;7.10;;;2.62;;
52170;SDS011;38689;47.552;18.820;2023-06-14T15:24:43;6.43;;;2.50;;
52170;SDS011;38689;47.552;18.820;2023-06-14T15:27:10;4.30;;;2.42;;
52170;SDS011;38689;47.552;18.820;2023-06-14T15:29:38;4.20;;;2.33;;
52170;SDS011;38689;47.552;18.820;2023-06-14T15:32:07;9.30;;;2.45;;
52170;SDS011;38689;47.552;18.820;2023-06-14T15:34:33;5.82;;;2.35;;
52170;SDS011;38689;47.552;18.820;2023-06-14T15:37:00;7.78;;;2.42;;
52170;SDS011;38689;47.552;18.820;2023-06-14T15:39:28;12.20;;;2.30;;
52170;SDS011;38689;47.552;18.820;2023-06-14T15:41:57;5.40;;;2.17;;
52170;SDS011;38689;47.552;18.820;2023-06-14T15:44:24;6.07;;;2.40;;
52170;SDS011;38689;47.552;18.820;2023-06-14T15:46:50;5.43;;;2.10;;
52170;SDS011;38689;47.552;18.820;2023-06-14T15:49:16;3.00;;;2.03;;
52170;SDS011;38689;47.552;18.820;2023-06-14T15:51:43;3.60;;;2.10;;
52170;SDS011;38689;47.552;18.820;2023-06-14T15:54:09;3.65;;;2.28;;
52170;SDS011;38689;47.552;18.820;2023-06-14T15:56:35;3.33;;;2.10;;
52170;SDS011;38689;47.552;18.820;2023-06-14T15:59:01;4.62;;;2.20;;
52170;SDS011;38689;47.552;18.820;2023-06-14T16:01:28;4.00;;;2.40;;
52170;SDS011;38689;47.552;18.820;2023-06-14T16:03:54;3.47;;;2.17;;
52170;SDS011;38689;47.552;18.820;2023-06-14T16:06:22;5.03;;;2.03;;
52170;SDS011;38689;47.552;18.820;2023-06-14T16:08:48;5.62;;;2.30;;
52170;SDS011;38689;47.552;18.820;2023-06-14T16:11:14;4.75;;;2.12;;
52170;SDS011;38689;47.552;18.820;2023-06-14T16:13:41;5.72;;;2.50;;
52170;SDS011;38689;47.552;18.820;2023-06-14T16:16:09;3.78;;;2.00;;
52170;SDS011;38689;47.552;18.820;2023-06-14T16:18:35;3.80;;;1.85;;
52170;SDS011;38689;47.552;18.820;2023-06-14T16:21:02;3.67;;;2.08;;
52170;SDS011;38689;47.552;18.820;2023-06-14T16:23:29;4.78;;;2.33;;
52170;SDS011;38689;47.552;18.820;2023-06-14T16:25:55;4.47;;;2.30;;
52170;SDS011;38689;47.552;18.820;2023-06-14T16:28:21;8.43;;;2.20;;
52170;SDS011;38689;47.552;18.820;2023-06-14T16:30:47;3.30;;;2.17;;
52170;SDS011;38689;47.552;18.820;2023-06-14T16:33:14;4.53;;;2.47;;
52170;SDS011;38689;47.552;18.820;2023-06-14T16:35:41;5.03;;;2.28;;
52170;SDS011;38689;47.552;18.820;2023-06-14T16:38:07;4.53;;;2.25;;
52170;SDS011;38689;47.552;18.820;2023-06-14T16:40:33;7.07;;;2.25;;
52170;SDS011;38689;47.552;18.820;2023-06-14T16:42:59;3.87;;;2.37;;
52170;SDS011;38689;47.552;18.820;2023-06-14T16:45:25;6.53;;;2.22;;
52170;SDS011;38689;47.552;18.820;2023-06-14T16:47:51;8.50;;;2.40;;
52170;SDS011;38689;47.552;18.820;2023-06-14T16:50:17;5.40;;;2.20;;
52170;SDS011;38689;47.552;18.820;2023-06-14T16:52:43;5.82;;;2.20;;
52170;SDS011;38689;47.552;18.820;2023-06-14T16:55:09;3.78;;;2.15;;
52170;SDS011;38689;47.552;18.820;2023-06-14T16:57:37;7.22;;;2.37;;
52170;SDS011;38689;47.552;18.820;2023-06-14T17:00:04;6.18;;;2.40;;
52170;SDS011;38689;47.552;18.820;2023-06-14T17:02:32;5.50;;;2.33;;
52170;SDS011;38689;47.552;18.820;2023-06-14T17:04:58;5.75;;;2.37;;
52170;SDS011;38689;47.552;18.820;2023-06-14T17:07:24;4.57;;;2.30;;
52170;SDS011;38689;47.552;18.820;2023-06-14T17:09:50;3.60;;;2.33;;
52170;SDS011;38689;47.552;18.820;2023-06-14T17:12:16;5.75;;;2.30;;
52170;SDS011;38689;47.552;18.820;2023-06-14T17:14:42;4.72;;;2.40;;
52170;SDS011;38689;47.552;18.820;2023-06-14T17:17:09;4.55;;;2.60;;
52170;SDS011;38689;47.552;18.820;2023-06-14T17:19:35;2.97;;;2.10;;
52170;SDS011;38689;47.552;18.820;2023-06-14T17:22:02;4.03;;;2.10;;
52170;SDS011;38689;47.552;18.820;2023-06-14T17:24:29;3.92;;;2.17;;
52170;SDS011;38689;47.552;18.820;2023-06-14T17:26:55;5.07;;;2.40;;
52170;SDS011;38689;47.552;18.820;2023-06-14T17:29:22;4.30;;;2.30;;
52170;SDS011;38689;47.552;18.820;2023-06-14T17:31:52;3.83;;;2.20;;
52170;SDS011;38689;47.552;18.820;2023-06-14T17:34:18;3.33;;;2.37;;
52170;SDS011;38689;47.552;18.820;2023-06-14T17:36:44;4.55;;;2.30;;
52170;SDS011;38689;47.552;18.820;2023-06-14T17:39:10;4.10;;;2.30;;
52170;SDS011;38689;47.552;18.820;2023-06-14T17:41:37;4.30;;;2.17;;
52170;SDS011;38689;47.552;18.820;2023-06-14T17:44:03;5.57;;;2.20;;
52170;SDS011;38689;47.552;18.820;2023-06-14T17:46:29;4.53;;;2.58;;
52170;SDS011;38689;47.552;18.820;2023-06-14T17:48:55;12.48;;;2.62;;
52170;SDS011;38689;47.552;18.820;2023-06-14T17:51:21;4.32;;;2.78;;
52170;SDS011;38689;47.552;18.820;2023-06-14T17:53:47;3.40;;;2.80;;
52170;SDS011;38689;47.552;18.820;2023-06-14T17:56:13;6.35;;;3.12;;
52170;SDS011;38689;47.552;18.820;2023-06-14T17:58:40;3.70;;;2.40;;
52170;SDS011;38689;47.552;18.820;2023-06-14T18:01:06;5.78;;;2.72;;
52170;SDS011;38689;47.552;18.820;2023-06-14T18:03:32;3.85;;;2.40;;
52170;SDS011;38689;47.552;18.820;2023-06-14T18:05:58;5.25;;;2.50;;
52170;SDS011;38689;47.552;18.820;2023-06-14T18:08:25;3.47;;;2.60;;
52170;SDS011;38689;47.552;18.820;2023-06-14T18:10:52;4.95;;;2.70;;
52170;SDS011;38689;47.552;18.820;2023-06-14T18:13:18;4.37;;;2.80;;
52170;SDS011;38689;47.552;18.820;2023-06-14T18:15:44;4.10;;;2.30;;
52170;SDS011;38689;47.552;18.820;2023-06-14T18:18:10;5.25;;;2.65;;
52170;SDS011;38689;47.552;18.820;2023-06-14T18:20:36;4.97;;;2.80;;
52170;SDS011;38689;47.552;18.820;2023-06-14T18:23:02;3.70;;;2.55;;
52170;SDS011;38689;47.552;18.820;2023-06-14T18:25:28;4.05;;;2.53;;
52170;SDS011;38689;47.552;18.820;2023-06-14T18:27:55;5.22;;;2.62;;
52170;SDS011;38689;47.552;18.820;2023-06-14T18:30:21;4.78;;;2.30;;
52170;SDS011;38689;47.552;18.820;2023-06-14T18:32:47;4.87;;;2.53;;
52170;SDS011;38689;47.552;18.820;2023-06-14T18:35:13;3.90;;;2.47;;
52170;SDS011;38689;47.552;18.820;2023-06-14T18:37:41;5.03;;;2.53;;
52170;SDS011;38689;47.552;18.820;2023-06-14T18:40:07;3.78;;;2.22;;
52170;SDS011;38689;47.552;18.820;2023-06-14T18:42:34;4.40;;;2.42;;
52170;SDS011;38689;47.552;18.820;2023-06-14T18:45:00;4.15;;;2.60;;
52170;SDS011;38689;47.552;18.820;2023-06-14T18:47:26;3.95;;;2.50;;
52170;SDS011;38689;47.552;18.820;2023-06-14T18:49:53;9.90;;;2.55;;
52170;SDS011;38689;47.552;18.820;2023-06-14T18:52:19;3.55;;;2.60;;
52170;SDS011;38689;47.552;18.820;2023-06-14T18:54:45;4.78;;;2.72;;
52170;SDS011;38689;47.552;18.820;2023-06-14T18:57:11;5.62;;;2.53;;
52170;SDS011;38689;47.552;18.820;2023-06-14T18:59:37;3.70;;;2.40;;
52170;SDS011;38689;47.552;18.820;2023-06-14T19:02:04;4.57;;;2.53;;
52170;SDS011;38689;47.552;18.820;2023-06-14T19:04:30;5.85;;;2.78;;
52170;SDS011;38689;47.552;18.820;2023-06-14T19:06:56;4.65;;;2.60;;
52170;SDS011;38689;47.552;18.820;2023-06-14T19:09:23;4.05;;;2.50;;
52170;SDS011;38689;47.552;18.820;2023-06-14T19:11:49;4.93;;;2.50;;
52170;SDS011;38689;47.552;18.820;2023-06-14T19:14:15;3.92;;;2.50;;
52170;SDS011;38689;47.552;18.820;2023-06-14T19:16:42;3.80;;;2.83;;
52170;SDS011;38689;47.552;18.820;2023-06-14T19:19:09;4.60;;;2.58;;
52170;SDS011;38689;47.552;18.820;2023-06-14T19:21:35;4.30;;;2.58;;
52170;SDS011;38689;47.552;18.820;2023-06-14T19:24:01;4.10;;;2.60;;
52170;SDS011;38689;47.552;18.820;2023-06-14T19:26:27;3.90;;;2.83;;
52170;SDS011;38689;47.552;18.820;2023-06-14T19:28:55;4.12;;;2.58;;
52170;SDS011;38689;47.552;18.820;2023-06-14T19:31:24;6.20;;;2.62;;
52170;SDS011;38689;47.552;18.820;2023-06-14T19:33:50;5.65;;;2.90;;
52170;SDS011;38689;47.552;18.820;2023-06-14T19:36:19;5.32;;;2.65;;
52170;SDS011;38689;47.552;18.820;2023-06-14T19:38:46;4.60;;;2.67;;
52170;SDS011;38689;47.552;18.820;2023-06-14T19:41:16;4.47;;;2.78;;
52170;SDS011;38689;47.552;18.820;2023-06-14T19:43:42;4.40;;;2.80;;
52170;SDS011;38689;47.552;18.820;2023-06-14T19:46:08;4.00;;;2.58;;
52170;SDS011;38689;47.552;18.820;2023-06-14T19:48:35;6.07;;;3.10;;
52170;SDS011;38689;47.552;18.820;2023-06-14T19:51:01;6.00;;;2.70;;
52170;SDS011;38689;47.552;18.820;2023-06-14T19:53:27;5.15;;;2.78;;
52170;SDS011;38689;47.552;18.820;2023-06-14T19:55:53;4.68;;;2.70;;
52170;SDS011;38689;47.552;18.820;2023-06-14T19:58:19;5.22;;;3.08;;
52170;SDS011;38689;47.552;18.820;2023-06-14T20:00:45;5.65;;;3.12;;
52170;SDS011;38689;47.552;18.820;2023-06-14T20:03:11;4.10;;;2.90;;
52170;SDS011;38689;47.552;18.820;2023-06-14T20:05:38;6.70;;;2.92;;
52170;SDS011;38689;47.552;18.820;2023-06-14T20:08:04;5.50;;;3.17;;